RYR48TD EGNM-LEPA
Flight info
| Callsign | RYR48TD |
|---|---|
| Flight time | 2h 23m |
| Altitude | 23000 |
| Route | NELSA DCT MCT DCT LISTO P18 STAFA L8 HON/N0442F370 UN859 SOPIL DCT BALAN DCT EVPOK DCT NARAK DCT GAI DCT LOMRA DCT ROCAN DCT IBRAP DCT LUKEV N13 LORES |
| Aircraft | B738/M-SDE2E3FGHIRWXY/LB1 |
Departure
| Time | 2026-05-04 05:37 |
|---|---|
| Airport | Leeds Bradford Airport (EGNM) |
Arrival
| Time | 2026-05-04 08:00 |
|---|---|
| Airport | Palma de Mallorca Airport (LEPA) |
| Time | Latitude | Longitude | Altitude | Speed | Heading |
|---|---|---|---|---|---|
| 2026-05-04 05:23 | 53.86872 | -1.65219 | 664 ft | 0 kts | 1° |
| 2026-05-04 05:29 | 53.86862 | -1.65220 | 664 ft | 4 kts | 355° |
| 2026-05-04 05:29 | 53.86844 | -1.65213 | 663 ft | 4 kts | 329° |
| 2026-05-04 05:31 | 53.86822 | -1.65149 | 659 ft | 0 kts | 271° |
| 2026-05-04 05:34 | 53.86822 | -1.65158 | 659 ft | 3 kts | 271° |
| 2026-05-04 05:34 | 53.86823 | -1.65224 | 661 ft | 10 kts | 274° |
| 2026-05-04 05:35 | 53.86804 | -1.65395 | 660 ft | 18 kts | 220° |
| 2026-05-04 05:35 | 53.86630 | -1.65426 | 662 ft | 31 kts | 184° |
| 2026-05-04 05:35 | 53.86393 | -1.65449 | 675 ft | 37 kts | 184° |
| 2026-05-04 05:35 | 53.86171 | -1.65408 | 678 ft | 32 kts | 139° |
| 2026-05-04 05:36 | 53.86010 | -1.65160 | 672 ft | 31 kts | 138° |
| 2026-05-04 05:36 | 53.85894 | -1.64956 | 663 ft | 6 kts | 201° |
| 2026-05-04 05:36 | 53.85911 | -1.65020 | 664 ft | 11 kts | 326° |
| 2026-05-04 05:36 | 53.86112 | -1.65324 | 679 ft | 81 kts | 317° |
| 2026-05-04 05:37 | 53.86742 | -1.66260 | 693 ft | 158 kts | 322° |
| 2026-05-04 05:37 | 53.87616 | -1.67465 | 1484 ft | 169 kts | 325° |
| 2026-05-04 05:37 | 53.88523 | -1.69057 | 1960 ft | 211 kts | 309° |
| 2026-05-04 05:38 | 53.90377 | -1.73949 | 2654 ft | 284 kts | 283° |
| 2026-05-04 05:38 | 53.90318 | -1.77453 | 2866 ft | 313 kts | 252° |
| 2026-05-04 05:38 | 53.89146 | -1.80678 | 3266 ft | 334 kts | 223° |
| 2026-05-04 05:38 | 53.87148 | -1.82693 | 4159 ft | 337 kts | 197° |
| 2026-05-04 05:39 | 53.84811 | -1.83253 | 5041 ft | 343 kts | 180° |
| 2026-05-04 05:39 | 53.79968 | -1.82665 | 6627 ft | 353 kts | 174° |
| 2026-05-04 05:39 | 53.77523 | -1.82219 | 7438 ft | 357 kts | 174° |
| 2026-05-04 05:40 | 53.72517 | -1.81413 | 9031 ft | 364 kts | 176° |
| 2026-05-04 05:40 | 53.70810 | -1.81174 | 9629 ft | 364 kts | 176° |
| 2026-05-04 05:40 | 53.68279 | -1.80843 | 10396 ft | 367 kts | 177° |
| 2026-05-04 05:41 | 53.65746 | -1.80534 | 11032 ft | 372 kts | 177° |
| 2026-05-04 05:41 | 53.63082 | -1.80222 | 11458 ft | 384 kts | 177° |
| 2026-05-04 05:41 | 53.60432 | -1.79920 | 12047 ft | 389 kts | 177° |
| 2026-05-04 05:41 | 53.57719 | -1.79615 | 12739 ft | 392 kts | 177° |
| 2026-05-04 05:42 | 53.54953 | -1.79305 | 13423 ft | 395 kts | 177° |
| 2026-05-04 05:42 | 53.52197 | -1.78998 | 14042 ft | 399 kts | 177° |
| 2026-05-04 05:42 | 53.49456 | -1.78693 | 14606 ft | 402 kts | 177° |
| 2026-05-04 05:42 | 53.46655 | -1.78382 | 15175 ft | 405 kts | 177° |
| 2026-05-04 05:43 | 53.43835 | -1.78069 | 15751 ft | 408 kts | 177° |
| 2026-05-04 05:43 | 53.40993 | -1.77756 | 16304 ft | 411 kts | 177° |
| 2026-05-04 05:43 | 53.38124 | -1.77438 | 16873 ft | 414 kts | 177° |
| 2026-05-04 05:45 | 53.17514 | -1.75168 | 20327 ft | 433 kts | 176° |
| 2026-05-04 05:45 | 53.14491 | -1.74837 | 20681 ft | 438 kts | 176° |
| 2026-05-04 05:47 | 52.92835 | -1.72480 | 23590 ft | 452 kts | 176° |
| 2026-05-04 05:47 | 52.89688 | -1.72140 | 23891 ft | 455 kts | 176° |
| 2026-05-04 05:47 | 52.86520 | -1.71798 | 24172 ft | 458 kts | 176° |
| 2026-05-04 05:48 | 52.83337 | -1.71455 | 24465 ft | 460 kts | 176° |
| 2026-05-04 05:48 | 52.80138 | -1.71111 | 24776 ft | 461 kts | 176° |
| 2026-05-04 05:48 | 52.76926 | -1.70765 | 25068 ft | 463 kts | 176° |
| 2026-05-04 05:48 | 52.73708 | -1.70419 | 25397 ft | 463 kts | 177° |
| 2026-05-04 05:49 | 52.70498 | -1.70074 | 25801 ft | 461 kts | 177° |
| 2026-05-04 05:49 | 52.67291 | -1.69731 | 26030 ft | 464 kts | 177° |
| 2026-05-04 05:49 | 52.64052 | -1.69386 | 26220 ft | 467 kts | 177° |
| 2026-05-04 05:49 | 52.60806 | -1.69039 | 26642 ft | 466 kts | 177° |
| 2026-05-04 05:51 | 52.38225 | -1.66642 | 28597 ft | 471 kts | 176° |
| 2026-05-04 05:51 | 52.34967 | -1.66015 | 28757 ft | 472 kts | 169° |
| 2026-05-04 05:52 | 52.31854 | -1.64585 | 29175 ft | 468 kts | 162° |
| 2026-05-04 05:52 | 52.28788 | -1.62901 | 29726 ft | 463 kts | 162° |
| 2026-05-04 05:52 | 52.25726 | -1.61237 | 29935 ft | 465 kts | 163° |
| 2026-05-04 05:52 | 52.22607 | -1.59570 | 30112 ft | 466 kts | 163° |
| 2026-05-04 05:53 | 52.19556 | -1.57964 | 30239 ft | 468 kts | 163° |
| 2026-05-04 05:54 | 51.97805 | -1.46711 | 31392 ft | 465 kts | 163° |
| 2026-05-04 05:55 | 51.94728 | -1.45126 | 31608 ft | 464 kts | 164° |
| 2026-05-04 05:55 | 51.91656 | -1.43548 | 31804 ft | 463 kts | 164° |
| 2026-05-04 05:55 | 51.88567 | -1.41964 | 31951 ft | 463 kts | 164° |
| 2026-05-04 05:55 | 51.85520 | -1.40404 | 32092 ft | 463 kts | 164° |
| 2026-05-04 05:56 | 51.82457 | -1.38836 | 32236 ft | 463 kts | 164° |
| 2026-05-04 05:56 | 51.79222 | -1.37183 | 32432 ft | 462 kts | 165° |
| 2026-05-04 05:56 | 51.76339 | -1.35712 | 32803 ft | 456 kts | 165° |
| 2026-05-04 05:56 | 51.73287 | -1.34169 | 33049 ft | 455 kts | 165° |
| 2026-05-04 05:57 | 51.70280 | -1.32656 | 33177 ft | 456 kts | 165° |
| 2026-05-04 05:57 | 51.67265 | -1.31141 | 33290 ft | 457 kts | 165° |
| 2026-05-04 05:57 | 51.64235 | -1.29617 | 33425 ft | 457 kts | 165° |
| 2026-05-04 05:57 | 51.61210 | -1.28086 | 33570 ft | 457 kts | 165° |
| 2026-05-04 05:58 | 51.58166 | -1.26540 | 33718 ft | 457 kts | 164° |
| 2026-05-04 05:58 | 51.55151 | -1.25009 | 33873 ft | 457 kts | 165° |
| 2026-05-04 05:58 | 51.52119 | -1.23474 | 34037 ft | 456 kts | 165° |
| 2026-05-04 05:58 | 51.49090 | -1.21916 | 34155 ft | 457 kts | 162° |
| 2026-05-04 05:59 | 51.43283 | -1.17702 | 34477 ft | 457 kts | 156° |
| 2026-05-04 05:59 | 51.40417 | -1.15508 | 34665 ft | 456 kts | 157° |
| 2026-05-04 05:59 | 51.37549 | -1.13371 | 34753 ft | 457 kts | 158° |
| 2026-05-04 06:00 | 51.31781 | -1.09159 | 35468 ft | 446 kts | 158° |
| 2026-05-04 06:00 | 51.28995 | -1.07125 | 36019 ft | 438 kts | 158° |
| 2026-05-04 06:00 | 51.26221 | -1.05101 | 36173 ft | 440 kts | 158° |
| 2026-05-04 06:01 | 51.20589 | -1.01003 | 36286 ft | 448 kts | 158° |
| 2026-05-04 06:03 | 51.00551 | -0.86506 | 36973 ft | 456 kts | 158° |
| 2026-05-04 06:03 | 50.97668 | -0.84430 | 36971 ft | 454 kts | 158° |
| 2026-05-04 06:05 | 50.72934 | -0.62965 | 36975 ft | 452 kts | 149° |
| 2026-05-04 06:06 | 50.67667 | -0.57565 | 36976 ft | 451 kts | 149° |
| 2026-05-04 06:06 | 50.62398 | -0.52228 | 36981 ft | 451 kts | 150° |
| 2026-05-04 06:07 | 50.57117 | -0.46906 | 36977 ft | 450 kts | 150° |
| 2026-05-04 06:07 | 50.51815 | -0.41575 | 36979 ft | 450 kts | 150° |
| 2026-05-04 06:08 | 50.46536 | -0.36278 | 36979 ft | 450 kts | 150° |
| 2026-05-04 06:08 | 50.41261 | -0.31000 | 36973 ft | 450 kts | 150° |
| 2026-05-04 06:09 | 50.36018 | -0.25768 | 36970 ft | 449 kts | 150° |
| 2026-05-04 06:11 | 50.14932 | -0.04859 | 36980 ft | 448 kts | 150° |
| 2026-05-04 06:13 | 49.91893 | 0.07107 | 36984 ft | 436 kts | 168° |
| 2026-05-04 06:14 | 49.71310 | 0.15132 | 36973 ft | 435 kts | 169° |
| 2026-05-04 06:15 | 49.65436 | 0.17433 | 36971 ft | 436 kts | 168° |
| 2026-05-04 06:15 | 49.59571 | 0.19818 | 36970 ft | 436 kts | 168° |
| 2026-05-04 06:16 | 49.53702 | 0.22208 | 36973 ft | 436 kts | 168° |
| 2026-05-04 06:16 | 49.47832 | 0.24580 | 36969 ft | 436 kts | 168° |
| 2026-05-04 06:17 | 49.41965 | 0.26941 | 36971 ft | 436 kts | 168° |
| 2026-05-04 06:17 | 49.36099 | 0.29297 | 36974 ft | 436 kts | 168° |
| 2026-05-04 06:18 | 49.30231 | 0.31650 | 36967 ft | 436 kts | 168° |
| 2026-05-04 06:20 | 49.06838 | 0.41480 | 36959 ft | 436 kts | 167° |
| 2026-05-04 06:21 | 48.92222 | 0.47565 | 36965 ft | 436 kts | 168° |
| 2026-05-04 06:22 | 48.86414 | 0.49974 | 36972 ft | 436 kts | 168° |
| 2026-05-04 06:25 | 48.45284 | 0.66288 | 36963 ft | 436 kts | 168° |
| 2026-05-04 06:26 | 48.39429 | 0.68682 | 36966 ft | 435 kts | 168° |
| 2026-05-04 06:26 | 48.33589 | 0.71053 | 36951 ft | 434 kts | 168° |
| 2026-05-04 06:27 | 48.19020 | 0.76887 | 36945 ft | 432 kts | 168° |
| 2026-05-04 06:28 | 48.13211 | 0.79165 | 36946 ft | 432 kts | 168° |
| 2026-05-04 06:28 | 48.07401 | 0.81443 | 36949 ft | 431 kts | 168° |
| 2026-05-04 06:29 | 48.01637 | 0.83702 | 36947 ft | 431 kts | 168° |
| 2026-05-04 06:29 | 47.95841 | 0.85968 | 36937 ft | 430 kts | 168° |
| 2026-05-04 06:30 | 47.90047 | 0.88229 | 36943 ft | 430 kts | 168° |
| 2026-05-04 06:30 | 47.84258 | 0.90482 | 36947 ft | 430 kts | 168° |
| 2026-05-04 06:31 | 47.79409 | 0.92362 | 36927 ft | 430 kts | 169° |
| 2026-05-04 06:31 | 47.73655 | 0.94586 | 36938 ft | 430 kts | 169° |
| 2026-05-04 06:33 | 47.50506 | 1.03491 | 36954 ft | 430 kts | 168° |
| 2026-05-04 06:34 | 47.44692 | 1.05698 | 36933 ft | 431 kts | 171° |
| 2026-05-04 06:34 | 47.39466 | 1.06470 | 36941 ft | 425 kts | 183° |
| 2026-05-04 06:36 | 47.16188 | 1.05800 | 36935 ft | 424 kts | 183° |
| 2026-05-04 06:37 | 47.10280 | 1.05670 | 37178 ft | 426 kts | 183° |
| 2026-05-04 06:37 | 47.07309 | 1.05604 | 37319 ft | 427 kts | 183° |
| 2026-05-04 06:37 | 47.04333 | 1.05538 | 37424 ft | 429 kts | 183° |
| 2026-05-04 06:38 | 46.98349 | 1.05351 | 37609 ft | 431 kts | 184° |
| 2026-05-04 06:40 | 46.77228 | 1.04399 | 38118 ft | 437 kts | 184° |
| 2026-05-04 06:40 | 46.74191 | 1.04269 | 38180 ft | 437 kts | 184° |
| 2026-05-04 06:40 | 46.68104 | 1.04007 | 38338 ft | 437 kts | 184° |
| 2026-05-04 06:41 | 46.62060 | 1.03748 | 38481 ft | 438 kts | 184° |
| 2026-05-04 06:41 | 46.55986 | 1.03489 | 38912 ft | 429 kts | 184° |
| 2026-05-04 06:42 | 46.50063 | 1.03741 | 38955 ft | 424 kts | 173° |
| 2026-05-04 06:44 | 46.27391 | 1.11387 | 38954 ft | 417 kts | 171° |
| 2026-05-04 06:44 | 46.21731 | 1.13266 | 38960 ft | 418 kts | 171° |
| 2026-05-04 06:45 | 46.16052 | 1.15147 | 38956 ft | 420 kts | 171° |
| 2026-05-04 06:45 | 46.10351 | 1.17033 | 38968 ft | 421 kts | 171° |
| 2026-05-04 06:46 | 46.04626 | 1.18922 | 38944 ft | 423 kts | 171° |
| 2026-05-04 06:46 | 45.98881 | 1.20815 | 38962 ft | 424 kts | 171° |
| 2026-05-04 06:48 | 45.75916 | 1.28342 | 38961 ft | 422 kts | 171° |
| 2026-05-04 06:50 | 45.53185 | 1.35729 | 38967 ft | 418 kts | 172° |
| 2026-05-04 06:51 | 45.47489 | 1.37278 | 38960 ft | 416 kts | 174° |
| 2026-05-04 06:51 | 45.41789 | 1.38619 | 38964 ft | 415 kts | 175° |
| 2026-05-04 06:52 | 45.36101 | 1.39976 | 38958 ft | 414 kts | 174° |
| 2026-05-04 06:52 | 45.30429 | 1.41363 | 38963 ft | 413 kts | 174° |
| 2026-05-04 06:53 | 45.24769 | 1.42760 | 38970 ft | 413 kts | 174° |
| 2026-05-04 06:53 | 45.19094 | 1.44162 | 38959 ft | 414 kts | 174° |
| 2026-05-04 06:54 | 45.13423 | 1.45560 | 38961 ft | 414 kts | 174° |
| 2026-05-04 06:54 | 45.07744 | 1.46958 | 38967 ft | 414 kts | 174° |
| 2026-05-04 06:55 | 45.02055 | 1.48354 | 38969 ft | 415 kts | 174° |
| 2026-05-04 06:55 | 44.96745 | 1.49655 | 38953 ft | 415 kts | 174° |
| 2026-05-04 06:57 | 44.73929 | 1.55218 | 38960 ft | 418 kts | 174° |
| 2026-05-04 06:58 | 44.68190 | 1.56610 | 38970 ft | 418 kts | 174° |
| 2026-05-04 06:58 | 44.62447 | 1.58001 | 38966 ft | 419 kts | 174° |
| 2026-05-04 06:59 | 44.56728 | 1.59383 | 38955 ft | 419 kts | 175° |
| 2026-05-04 06:59 | 44.50998 | 1.60765 | 38962 ft | 418 kts | 175° |
| 2026-05-04 07:01 | 44.28161 | 1.66245 | 38962 ft | 415 kts | 175° |
| 2026-05-04 07:02 | 44.22479 | 1.67602 | 38964 ft | 414 kts | 175° |
| 2026-05-04 07:02 | 44.16806 | 1.68954 | 38961 ft | 413 kts | 175° |
| 2026-05-04 07:03 | 44.11178 | 1.70292 | 38961 ft | 413 kts | 175° |
| 2026-05-04 07:03 | 44.05515 | 1.71636 | 38961 ft | 413 kts | 175° |
| 2026-05-04 07:04 | 43.99860 | 1.72975 | 38948 ft | 412 kts | 175° |
| 2026-05-04 07:04 | 43.94211 | 1.74312 | 38954 ft | 412 kts | 175° |
| 2026-05-04 07:05 | 43.88559 | 1.75645 | 38962 ft | 412 kts | 175° |
| 2026-05-04 07:05 | 43.82912 | 1.76975 | 38962 ft | 412 kts | 175° |
| 2026-05-04 07:06 | 43.74435 | 1.78967 | 38967 ft | 412 kts | 175° |
| 2026-05-04 07:07 | 43.68780 | 1.80293 | 38962 ft | 412 kts | 175° |
| 2026-05-04 07:09 | 43.46146 | 1.85574 | 38958 ft | 413 kts | 175° |
| 2026-05-04 07:09 | 43.40472 | 1.86892 | 38940 ft | 413 kts | 175° |
| 2026-05-04 07:10 | 43.34799 | 1.88204 | 38950 ft | 413 kts | 176° |
| 2026-05-04 07:12 | 43.11996 | 1.90450 | 38953 ft | 412 kts | 181° |
| 2026-05-04 07:12 | 43.06268 | 1.90998 | 38945 ft | 412 kts | 181° |
| 2026-05-04 07:13 | 43.00546 | 1.91544 | 38941 ft | 412 kts | 181° |
| 2026-05-04 07:13 | 42.94836 | 1.92090 | 38948 ft | 411 kts | 182° |
| 2026-05-04 07:14 | 42.80566 | 1.93445 | 38961 ft | 412 kts | 182° |
| 2026-05-04 07:15 | 42.74849 | 1.93987 | 38959 ft | 412 kts | 181° |
| 2026-05-04 07:15 | 42.69127 | 1.94525 | 38981 ft | 413 kts | 182° |
| 2026-05-04 07:16 | 42.63397 | 1.95986 | 38967 ft | 425 kts | 171° |
| 2026-05-04 07:16 | 42.57676 | 1.98130 | 38949 ft | 426 kts | 171° |
| 2026-05-04 07:17 | 42.52013 | 2.00217 | 38965 ft | 422 kts | 172° |
| 2026-05-04 07:17 | 42.46347 | 2.02260 | 38967 ft | 420 kts | 172° |
| 2026-05-04 07:18 | 42.40707 | 2.04287 | 38951 ft | 416 kts | 172° |
| 2026-05-04 07:18 | 42.35124 | 2.06286 | 38979 ft | 415 kts | 172° |
| 2026-05-04 07:19 | 42.29542 | 2.08264 | 38963 ft | 413 kts | 172° |
| 2026-05-04 07:19 | 42.23984 | 2.10230 | 38991 ft | 416 kts | 172° |
| 2026-05-04 07:20 | 42.18339 | 2.12226 | 38990 ft | 422 kts | 172° |
| 2026-05-04 07:20 | 42.12625 | 2.14246 | 38978 ft | 427 kts | 172° |
| 2026-05-04 07:22 | 41.92790 | 2.21236 | 38980 ft | 414 kts | 173° |
| 2026-05-04 07:22 | 41.90001 | 2.22213 | 38977 ft | 415 kts | 173° |
| 2026-05-04 07:23 | 41.85356 | 2.23839 | 38985 ft | 415 kts | 173° |
| 2026-05-04 07:23 | 41.79768 | 2.25793 | 38995 ft | 416 kts | 173° |
| 2026-05-04 07:24 | 41.74151 | 2.27753 | 38973 ft | 418 kts | 173° |
| 2026-05-04 07:24 | 41.68510 | 2.29720 | 38979 ft | 420 kts | 173° |
| 2026-05-04 07:26 | 41.45763 | 2.37628 | 38977 ft | 423 kts | 174° |
| 2026-05-04 07:27 | 41.40063 | 2.39601 | 38986 ft | 423 kts | 174° |
| 2026-05-04 07:27 | 41.34358 | 2.41571 | 38984 ft | 423 kts | 174° |
| 2026-05-04 07:28 | 41.28661 | 2.43536 | 38973 ft | 422 kts | 174° |
| 2026-05-04 07:28 | 41.22979 | 2.45492 | 38978 ft | 422 kts | 174° |
| 2026-05-04 07:29 | 41.17298 | 2.47443 | 38976 ft | 421 kts | 174° |
| 2026-05-04 07:29 | 41.11633 | 2.49386 | 38978 ft | 420 kts | 174° |
| 2026-05-04 07:30 | 41.06007 | 2.51312 | 38972 ft | 419 kts | 175° |
| 2026-05-04 07:30 | 41.00360 | 2.53241 | 38983 ft | 419 kts | 175° |
| 2026-05-04 07:31 | 40.94718 | 2.55165 | 38979 ft | 418 kts | 175° |
| 2026-05-04 07:33 | 40.72237 | 2.62804 | 38742 ft | 409 kts | 175° |
| 2026-05-04 07:33 | 40.69497 | 2.63735 | 38269 ft | 406 kts | 175° |
| 2026-05-04 07:33 | 40.66756 | 2.64659 | 37624 ft | 407 kts | 175° |
| 2026-05-04 07:34 | 40.64013 | 2.65582 | 37095 ft | 406 kts | 175° |
| 2026-05-04 07:34 | 40.61293 | 2.66500 | 36705 ft | 401 kts | 175° |
| 2026-05-04 07:34 | 40.58608 | 2.67407 | 36316 ft | 397 kts | 175° |
| 2026-05-04 07:34 | 40.55938 | 2.68306 | 35861 ft | 395 kts | 175° |
| 2026-05-04 07:35 | 40.53281 | 2.69199 | 35436 ft | 393 kts | 175° |
| 2026-05-04 07:35 | 40.50644 | 2.70094 | 35075 ft | 391 kts | 173° |
| 2026-05-04 07:35 | 40.48090 | 2.71444 | 34682 ft | 402 kts | 162° |
| 2026-05-04 07:35 | 40.45641 | 2.73222 | 34377 ft | 401 kts | 160° |
| 2026-05-04 07:36 | 40.43235 | 2.75045 | 34009 ft | 398 kts | 160° |
| 2026-05-04 07:36 | 40.40844 | 2.76800 | 33578 ft | 392 kts | 165° |
| 2026-05-04 07:38 | 40.20614 | 2.82236 | 25519 ft | 447 kts | 175° |
| 2026-05-04 07:38 | 40.17574 | 2.82987 | 24902 ft | 442 kts | 175° |
| 2026-05-04 07:38 | 40.14571 | 2.83730 | 24207 ft | 438 kts | 175° |
| 2026-05-04 07:38 | 40.11560 | 2.84467 | 23140 ft | 443 kts | 175° |
| 2026-05-04 07:39 | 40.08522 | 2.85207 | 22194 ft | 443 kts | 175° |
| 2026-05-04 07:39 | 40.05513 | 2.85942 | 21488 ft | 438 kts | 175° |
| 2026-05-04 07:39 | 40.02537 | 2.86672 | 20787 ft | 433 kts | 174° |
| 2026-05-04 07:39 | 39.99667 | 2.87878 | 19970 ft | 442 kts | 159° |
| 2026-05-04 07:40 | 39.97143 | 2.90164 | 19230 ft | 452 kts | 141° |
| 2026-05-04 07:40 | 39.95186 | 2.93396 | 18600 ft | 458 kts | 123° |
| 2026-05-04 07:40 | 39.93997 | 2.97249 | 17956 ft | 460 kts | 108° |
| 2026-05-04 07:40 | 39.93351 | 3.01241 | 17360 ft | 456 kts | 99° |
| 2026-05-04 07:41 | 39.93355 | 3.05373 | 16624 ft | 457 kts | 82° |
| 2026-05-04 07:41 | 39.94268 | 3.09291 | 16014 ft | 451 kts | 63° |
| 2026-05-04 07:41 | 39.95861 | 3.12771 | 15494 ft | 443 kts | 54° |
| 2026-05-04 07:41 | 39.97693 | 3.15952 | 14883 ft | 436 kts | 45° |
| 2026-05-04 07:42 | 40.00016 | 3.18433 | 14267 ft | 428 kts | 27° |
| 2026-05-04 07:42 | 40.02667 | 3.19918 | 13825 ft | 415 kts | 15° |
| 2026-05-04 07:42 | 40.05441 | 3.21023 | 13194 ft | 410 kts | 13° |
| 2026-05-04 07:42 | 40.08187 | 3.22020 | 12472 ft | 408 kts | 13° |
| 2026-05-04 07:43 | 40.10929 | 3.22908 | 11847 ft | 403 kts | 6° |
| 2026-05-04 07:43 | 40.13566 | 3.22765 | 11694 ft | 372 kts | 341° |
| 2026-05-04 07:43 | 40.15803 | 3.21269 | 11369 ft | 348 kts | 316° |
| 2026-05-04 07:43 | 40.17319 | 3.18980 | 11090 ft | 330 kts | 302° |
| 2026-05-04 07:44 | 40.18431 | 3.16425 | 10760 ft | 317 kts | 291° |
| 2026-05-04 07:44 | 40.19132 | 3.13749 | 10442 ft | 308 kts | 280° |
| 2026-05-04 07:44 | 40.19385 | 3.10982 | 9994 ft | 308 kts | 268° |
| 2026-05-04 07:44 | 40.19109 | 3.08206 | 9479 ft | 309 kts | 253° |
| 2026-05-04 07:45 | 40.18287 | 3.05614 | 8980 ft | 310 kts | 238° |
| 2026-05-04 07:45 | 40.16971 | 3.03380 | 8472 ft | 312 kts | 224° |
| 2026-05-04 07:45 | 40.15263 | 3.01620 | 7990 ft | 315 kts | 213° |
| 2026-05-04 07:45 | 40.13308 | 3.00311 | 7470 ft | 318 kts | 200° |
| 2026-05-04 07:46 | 40.11138 | 2.99721 | 7005 ft | 320 kts | 186° |
| 2026-05-04 07:46 | 40.08919 | 2.99640 | 6510 ft | 322 kts | 173° |
| 2026-05-04 07:46 | 40.06797 | 3.00587 | 6004 ft | 326 kts | 150° |
| 2026-05-04 07:46 | 40.05094 | 3.02529 | 5538 ft | 328 kts | 133° |
| 2026-05-04 07:47 | 40.03849 | 3.05022 | 5027 ft | 330 kts | 116° |
| 2026-05-04 07:47 | 40.02973 | 3.07784 | 4563 ft | 330 kts | 113° |
| 2026-05-04 07:47 | 40.02155 | 3.10579 | 4127 ft | 328 kts | 112° |
| 2026-05-04 07:49 | 39.92408 | 3.16905 | 3990 ft | 225 kts | 211° |
| 2026-05-04 07:49 | 39.91094 | 3.15877 | 3986 ft | 215 kts | 211° |
| 2026-05-04 07:49 | 39.89843 | 3.14893 | 3972 ft | 205 kts | 211° |
| 2026-05-04 07:50 | 39.88658 | 3.13966 | 3996 ft | 193 kts | 211° |
| 2026-05-04 07:50 | 39.87529 | 3.13090 | 3997 ft | 186 kts | 211° |
| 2026-05-04 07:50 | 39.86406 | 3.12222 | 4020 ft | 189 kts | 211° |
| 2026-05-04 07:50 | 39.85261 | 3.11341 | 4003 ft | 194 kts | 211° |
| 2026-05-04 07:51 | 39.84098 | 3.10449 | 3998 ft | 193 kts | 211° |
| 2026-05-04 07:51 | 39.82941 | 3.09562 | 4006 ft | 194 kts | 211° |
| 2026-05-04 07:51 | 39.81777 | 3.08673 | 3995 ft | 193 kts | 211° |
| 2026-05-04 07:51 | 39.80632 | 3.07801 | 3998 ft | 194 kts | 211° |
| 2026-05-04 07:52 | 39.79471 | 3.06919 | 3989 ft | 193 kts | 211° |
| 2026-05-04 07:52 | 39.78318 | 3.06043 | 3994 ft | 190 kts | 211° |
| 2026-05-04 07:52 | 39.77184 | 3.05183 | 3831 ft | 188 kts | 210° |
| 2026-05-04 07:52 | 39.76049 | 3.04322 | 3517 ft | 188 kts | 210° |
| 2026-05-04 07:53 | 39.74931 | 3.03475 | 3220 ft | 188 kts | 211° |
| 2026-05-04 07:54 | 39.67323 | 2.97719 | 2513 ft | 166 kts | 210° |
| 2026-05-04 07:55 | 39.66308 | 2.96955 | 2464 ft | 169 kts | 210° |
| 2026-05-04 07:55 | 39.65314 | 2.96204 | 2492 ft | 165 kts | 211° |
| 2026-05-04 07:55 | 39.64540 | 2.95185 | 2506 ft | 156 kts | 239° |
| 2026-05-04 07:55 | 39.63984 | 2.93989 | 2499 ft | 156 kts | 237° |
| 2026-05-04 07:56 | 39.63410 | 2.92792 | 2497 ft | 158 kts | 237° |
| 2026-05-04 07:56 | 39.62833 | 2.91573 | 2515 ft | 157 kts | 237° |
| 2026-05-04 07:56 | 39.62262 | 2.90367 | 2503 ft | 157 kts | 237° |
| 2026-05-04 07:56 | 39.61681 | 2.89141 | 2309 ft | 163 kts | 237° |
| 2026-05-04 07:57 | 39.61095 | 2.87902 | 2129 ft | 159 kts | 237° |
| 2026-05-04 07:57 | 39.60529 | 2.86706 | 1904 ft | 152 kts | 237° |
| 2026-05-04 07:57 | 39.59975 | 2.85537 | 1706 ft | 155 kts | 236° |
| 2026-05-04 07:57 | 39.59401 | 2.84326 | 1506 ft | 160 kts | 237° |
| 2026-05-04 07:58 | 39.58824 | 2.83107 | 1302 ft | 157 kts | 236° |
| 2026-05-04 07:58 | 39.58258 | 2.81909 | 1089 ft | 154 kts | 237° |
| 2026-05-04 07:58 | 39.57697 | 2.80724 | 871 ft | 156 kts | 237° |
| 2026-05-04 07:58 | 39.57130 | 2.79525 | 674 ft | 157 kts | 238° |
| 2026-05-04 07:59 | 39.56554 | 2.78307 | 464 ft | 159 kts | 237° |
| 2026-05-04 07:59 | 39.55980 | 2.77092 | 266 ft | 157 kts | 238° |
| 2026-05-04 07:59 | 39.55432 | 2.75932 | 67 ft | 146 kts | 237° |
| 2026-05-04 07:59 | 39.54905 | 2.74820 | 37 ft | 143 kts | 238° |
| 2026-05-04 08:00 | 39.54443 | 2.73848 | 37 ft | 83 kts | 237° |
| 2026-05-04 08:00 | 39.54221 | 2.73371 | 36 ft | 54 kts | 239° |
| 2026-05-04 08:00 | 39.54151 | 2.73113 | 37 ft | 23 kts | 266° |
| 2026-05-04 08:02 | 39.54516 | 2.73550 | 36 ft | 21 kts | 59° |
| 2026-05-04 08:02 | 39.54601 | 2.73727 | 37 ft | 30 kts | 59° |
| 2026-05-04 08:02 | 39.54700 | 2.73938 | 37 ft | 15 kts | 57° |
| 2026-05-04 08:03 | 39.54747 | 2.74038 | 37 ft | 13 kts | 59° |
| 2026-05-04 08:03 | 39.54804 | 2.74120 | 37 ft | 12 kts | 17° |
| 2026-05-04 08:03 | 39.54882 | 2.74081 | 36 ft | 12 kts | 328° |
| 2026-05-04 08:03 | 39.54977 | 2.74006 | 37 ft | 21 kts | 329° |
| 2026-05-04 08:04 | 39.55098 | 2.73913 | 37 ft | 11 kts | 328° |
| 2026-05-04 08:04 | 39.55190 | 2.73841 | 37 ft | 20 kts | 327° |
| 2026-05-04 08:04 | 39.55328 | 2.73729 | 35 ft | 22 kts | 327° |
| 2026-05-04 08:04 | 39.55424 | 2.73654 | 37 ft | 19 kts | 330° |
| 2026-05-04 08:05 | 39.55469 | 2.73504 | 37 ft | 23 kts | 239° |
| 2026-05-04 08:05 | 39.55401 | 2.73358 | 36 ft | 17 kts | 239° |
| 2026-05-04 08:05 | 39.55369 | 2.73291 | 37 ft | 0 kts | 239° |
| 2026-05-04 08:05 | 39.55352 | 2.73254 | 37 ft | 7 kts | 239° |
| 2026-05-04 08:06 | 39.55349 | 2.73247 | 37 ft | 1 kts | 240° |
| 2026-05-04 08:06 | 39.55355 | 2.73205 | 36 ft | 9 kts | 317° |
| 2026-05-04 08:06 | 39.55389 | 2.73179 | 37 ft | 5 kts | 329° |
| 2026-05-04 08:06 | 39.55412 | 2.73169 | 37 ft | 1 kts | 22° |